createdAt,value
2022-11-03T00:01:53.089Z,11.08
2022-11-03T00:04:19.986Z,10.89
2022-11-03T00:06:47.095Z,10.84
2022-11-03T00:09:14.042Z,10.64
2022-11-03T00:11:40.859Z,10.64
2022-11-03T00:14:07.204Z,10.68
2022-11-03T00:16:33.484Z,10.70
2022-11-03T00:18:59.747Z,10.60
2022-11-03T00:21:26.010Z,10.63
2022-11-03T00:23:52.280Z,10.81
2022-11-03T00:26:20.752Z,10.94
2022-11-03T00:28:47.876Z,11.15
2022-11-03T00:31:32.576Z,11.08
2022-11-03T00:33:59.030Z,10.84
2022-11-03T00:36:26.089Z,10.98
2022-11-03T00:38:52.476Z,10.97
2022-11-03T00:41:20.578Z,10.73
2022-11-03T00:43:46.849Z,11.02
2022-11-03T00:46:13.197Z,11.02
2022-11-03T00:48:39.525Z,10.85
2022-11-03T00:51:05.806Z,10.80
2022-11-03T00:53:32.551Z,10.64
2022-11-03T00:55:58.825Z,10.49
2022-11-03T00:58:25.098Z,10.39
2022-11-03T01:00:51.451Z,10.51
2022-11-03T01:03:17.766Z,10.60
2022-11-03T01:06:02.917Z,10.68
2022-11-03T01:08:33.069Z,10.63
2022-11-03T01:11:43.678Z,10.50
2022-11-03T01:14:10.497Z,10.34
2022-11-03T01:16:36.769Z,10.28
2022-11-03T01:19:03.047Z,10.33
2022-11-03T01:21:29.416Z,10.53
2022-11-03T01:23:55.741Z,10.65
2022-11-03T01:26:22.014Z,10.72
2022-11-03T01:28:48.321Z,10.69
2022-11-03T01:31:18.519Z,10.66
2022-11-03T01:33:47.488Z,10.82
2022-11-03T01:36:13.952Z,10.78
2022-11-03T01:38:40.245Z,10.70
2022-11-03T01:41:07.095Z,10.76
2022-11-03T01:43:33.381Z,11.10
2022-11-03T01:46:05.634Z,11.13
2022-11-03T01:48:31.909Z,10.86
2022-11-03T01:50:58.204Z,10.79
2022-11-03T01:53:24.488Z,10.51
2022-11-03T01:55:50.843Z,10.29
2022-11-03T01:58:18.287Z,9.94
2022-11-03T02:00:45.269Z,9.93
2022-11-03T02:03:11.620Z,10.44
2022-11-03T02:05:37.905Z,10.31
2022-11-03T02:08:05.672Z,10.24
2022-11-03T02:10:31.985Z,10.46
2022-11-03T02:12:58.271Z,10.49
2022-11-03T02:15:24.705Z,10.57
2022-11-03T02:17:51.236Z,10.39
2022-11-03T02:20:18.102Z,10.29
2022-11-03T02:22:44.347Z,10.16
2022-11-03T02:25:16.889Z,10.28
2022-11-03T02:27:43.170Z,10.28
2022-11-03T02:30:09.784Z,10.24
2022-11-03T02:32:44.472Z,10.38
2022-11-03T02:35:13.835Z,10.27
2022-11-03T02:37:41.177Z,10.62
2022-11-03T02:40:08.655Z,10.55
2022-11-03T02:42:35.492Z,10.34
2022-11-03T02:45:02.552Z,10.13
2022-11-03T02:47:28.920Z,10.09
2022-11-03T02:52:41.660Z,9.81
2022-11-03T02:55:12.439Z,9.98
2022-11-03T02:57:39.699Z,9.96
2022-11-03T03:00:06.383Z,10.09
2022-11-03T03:02:34.348Z,10.13
2022-11-03T03:05:01.635Z,10.46
2022-11-03T03:07:29.437Z,10.73
2022-11-03T03:10:02.805Z,10.74
2022-11-03T03:12:29.093Z,10.60
2022-11-03T03:14:55.357Z,10.71
2022-11-03T03:17:25.862Z,10.57
2022-11-03T03:20:02.670Z,10.76
2022-11-03T03:22:30.617Z,10.79
2022-11-03T03:25:01.273Z,10.88
2022-11-03T03:27:27.963Z,10.56
2022-11-03T03:30:01.679Z,10.46
2022-11-03T03:32:28.181Z,10.43
2022-11-03T03:34:54.499Z,10.49
2022-11-03T03:37:21.211Z,10.47
2022-11-03T03:39:48.439Z,10.49
2022-11-03T03:42:14.710Z,10.47
2022-11-03T03:44:41.355Z,10.50
2022-11-03T03:47:10.806Z,10.55
2022-11-03T03:49:37.066Z,10.52
2022-11-03T03:52:03.883Z,10.47
2022-11-03T03:54:30.168Z,10.52
2022-11-03T03:56:57.880Z,10.66
2022-11-03T03:59:24.207Z,10.50
2022-11-03T04:01:50.719Z,10.32
2022-11-03T04:04:17.102Z,10.36
2022-11-03T04:06:43.380Z,10.51
2022-11-03T04:09:09.722Z,10.82
2022-11-03T04:11:54.804Z,10.55
2022-11-03T04:14:39.657Z,10.51
2022-11-03T04:17:26.606Z,10.32
2022-11-03T04:20:11.529Z,10.52
2022-11-03T04:22:37.845Z,10.63
2022-11-03T04:25:04.229Z,10.79
2022-11-03T04:27:30.498Z,10.76
2022-11-03T04:30:00.173Z,10.71
2022-11-03T04:32:26.443Z,10.76
2022-11-03T04:34:52.751Z,10.81
2022-11-03T04:37:19.048Z,10.58
2022-11-03T04:42:19.793Z,10.47
2022-11-03T04:44:49.252Z,10.52
2022-11-03T04:47:15.914Z,10.50
2022-11-03T04:49:42.570Z,10.49
2022-11-03T04:52:16.449Z,10.52
2022-11-03T04:54:42.784Z,10.47
2022-11-03T04:57:10.504Z,10.45
2022-11-03T04:59:36.837Z,10.31
2022-11-03T05:02:03.673Z,10.07
2022-11-03T05:04:30.074Z,10.18
2022-11-03T05:06:56.337Z,10.40
2022-11-03T05:09:29.339Z,10.60
2022-11-03T05:11:55.619Z,10.64
2022-11-03T05:14:21.917Z,10.57
2022-11-03T05:16:48.460Z,10.52
2022-11-03T05:19:15.649Z,10.34
2022-11-03T05:21:41.974Z,10.36
2022-11-03T05:24:11.780Z,10.53
2022-11-03T05:26:38.076Z,10.46
2022-11-03T05:29:09.453Z,10.53
2022-11-03T05:31:35.736Z,10.72
2022-11-03T05:34:02.689Z,10.90
2022-11-03T05:36:30.291Z,10.88
2022-11-03T05:38:58.625Z,10.95
2022-11-03T05:41:25.285Z,10.94
2022-11-03T05:43:59.159Z,10.74
2022-11-03T05:46:29.406Z,10.47
2022-11-03T05:48:55.675Z,10.37
2022-11-03T05:51:22.812Z,10.60
2022-11-03T05:53:50.490Z,10.38
2022-11-03T05:56:18.248Z,10.51
2022-11-03T05:58:44.604Z,10.40
2022-11-03T06:01:26.483Z,10.45
2022-11-03T06:03:52.967Z,10.45
2022-11-03T06:06:21.007Z,10.50
2022-11-03T06:08:47.295Z,10.39
2022-11-03T06:11:16.182Z,10.36
2022-11-03T06:13:42.472Z,10.36
2022-11-03T06:16:11.833Z,10.62
2022-11-03T06:18:38.337Z,10.69
2022-11-03T06:21:08.362Z,10.66
2022-11-03T06:23:34.850Z,10.66
2022-11-03T06:26:02.489Z,10.83
2022-11-03T06:28:37.867Z,10.37
2022-11-03T06:31:14.379Z,10.00
2022-11-03T06:33:42.244Z,10.40
2022-11-03T06:36:13.339Z,10.30
2022-11-03T06:38:39.664Z,10.43
2022-11-03T06:41:07.537Z,10.48
2022-11-03T06:43:40.642Z,10.61
2022-11-03T06:46:20.349Z,10.73
2022-11-03T06:48:46.630Z,10.44
2022-11-03T06:51:20.023Z,10.46
2022-11-03T06:53:46.373Z,10.67
2022-11-03T06:56:13.072Z,10.82
2022-11-03T06:58:39.342Z,10.81
2022-11-03T07:01:15.964Z,11.04
2022-11-03T07:03:42.334Z,11.20
2022-11-03T07:06:13.822Z,11.31
2022-11-03T07:08:43.639Z,10.92
2022-11-03T07:11:17.235Z,11.27
2022-11-03T07:13:43.554Z,11.58
2022-11-03T07:16:28.344Z,11.55
2022-11-03T07:18:54.637Z,11.55
2022-11-03T07:21:37.959Z,11.67
2022-11-03T07:24:12.815Z,11.77
2022-11-03T07:26:39.086Z,11.99
2022-11-03T07:29:05.355Z,12.01
2022-11-03T07:31:31.663Z,12.19
2022-11-03T07:33:58.588Z,12.19
2022-11-03T07:36:25.861Z,12.00
2022-11-03T07:38:52.653Z,11.95
2022-11-03T07:41:22.776Z,11.65
2022-11-03T07:43:58.669Z,11.25
2022-11-03T07:46:25.155Z,11.26
2022-11-03T07:48:57.920Z,11.43
2022-11-03T07:51:29.637Z,11.28
2022-11-03T07:53:58.909Z,11.27
2022-11-03T07:56:25.939Z,11.99
2022-11-03T07:58:54.087Z,12.34
2022-11-03T08:01:24.846Z,12.45
2022-11-03T08:03:51.369Z,12.51
2022-11-03T08:06:19.902Z,12.53
2022-11-03T08:08:46.505Z,12.49
2022-11-03T08:13:43.979Z,12.78
2022-11-03T08:16:10.259Z,12.86
2022-11-03T08:18:37.055Z,12.11
2022-11-03T08:21:03.323Z,12.20
2022-11-03T08:23:29.997Z,12.35
2022-11-03T08:25:56.802Z,12.56
2022-11-03T08:28:23.208Z,12.81
2022-11-03T08:30:49.622Z,12.61
2022-11-03T08:33:15.971Z,11.97
2022-11-03T08:35:42.409Z,11.88
2022-11-03T08:38:09.137Z,12.03
2022-11-03T08:40:35.629Z,12.65
2022-11-03T08:43:03.018Z,12.94
2022-11-03T08:45:29.926Z,13.02
2022-11-03T08:47:56.340Z,13.17
2022-11-03T08:50:22.677Z,13.24
2022-11-03T08:52:49.461Z,13.38
2022-11-03T08:55:15.739Z,13.41
2022-11-03T08:57:42.016Z,13.41
2022-11-03T09:00:08.562Z,13.38
2022-11-03T09:02:34.876Z,13.45
2022-11-03T09:05:01.194Z,13.43
2022-11-03T09:12:43.023Z,13.62
2022-11-03T09:15:09.531Z,13.68
2022-11-03T09:17:35.822Z,13.55
2022-11-03T09:20:02.143Z,13.19
2022-11-03T09:22:28.494Z,13.24
2022-11-03T09:24:54.803Z,13.60
2022-11-03T09:27:21.137Z,13.74
2022-11-03T09:30:11.768Z,13.79
2022-11-03T09:32:34.259Z,13.73
2022-11-03T09:35:00.532Z,13.86
2022-11-03T09:37:27.472Z,13.83
2022-11-03T09:39:53.842Z,13.91
2022-11-03T09:42:20.135Z,14.08
2022-11-03T09:44:47.666Z,14.21
2022-11-03T09:47:16.954Z,14.24
2022-11-03T09:49:43.360Z,14.29
2022-11-03T09:52:09.634Z,14.32
2022-11-03T09:54:35.912Z,14.33
2022-11-03T09:57:05.550Z,14.20
2022-11-03T09:59:31.896Z,14.35
2022-11-03T10:01:58.239Z,14.40
2022-11-03T10:04:27.908Z,14.31
2022-11-03T10:06:54.846Z,14.51
2022-11-03T10:09:23.080Z,14.51
2022-11-03T10:11:49.599Z,14.44
2022-11-03T10:14:16.099Z,14.11
2022-11-03T10:16:42.673Z,14.19
2022-11-03T10:19:18.198Z,14.48
2022-11-03T10:21:44.451Z,14.69
2022-11-03T10:24:11.404Z,14.46
2022-11-03T10:26:44.933Z,13.86
2022-11-03T10:31:54.381Z,14.00
2022-11-03T10:34:37.350Z,14.19
2022-11-03T10:37:22.448Z,14.46
2022-11-03T10:39:49.383Z,14.66
2022-11-03T10:42:16.534Z,14.81
2022-11-03T10:44:42.802Z,14.94
2022-11-03T10:47:09.723Z,15.03
2022-11-03T10:49:43.678Z,14.98
2022-11-03T10:52:20.891Z,15.09
2022-11-03T10:54:47.391Z,15.17
2022-11-03T10:57:13.661Z,14.82
2022-11-03T10:59:40.027Z,14.99
2022-11-03T11:02:14.029Z,14.93
2022-11-03T11:04:40.389Z,15.13
2022-11-03T11:07:27.078Z,15.27
2022-11-03T11:09:53.852Z,14.98
2022-11-03T11:12:23.687Z,15.13
2022-11-03T11:14:56.926Z,15.26
2022-11-03T11:17:39.125Z,15.42
2022-11-03T11:20:18.177Z,15.46
2022-11-03T11:22:44.943Z,15.35
2022-11-03T11:25:11.205Z,15.39
2022-11-03T11:27:43.608Z,15.41
2022-11-03T11:30:19.077Z,15.61
2022-11-03T11:32:45.315Z,15.70
2022-11-03T11:35:12.301Z,15.80
2022-11-03T11:37:38.640Z,15.74
2022-11-03T11:40:11.936Z,15.60
2022-11-03T11:42:58.480Z,15.63
2022-11-03T11:45:43.503Z,15.70
2022-11-03T11:48:18.852Z,15.80
2022-11-03T11:50:45.723Z,15.87
2022-11-03T11:53:18.528Z,15.95
2022-11-03T11:55:51.990Z,15.92
2022-11-03T11:58:19.395Z,15.91
2022-11-03T12:00:57.728Z,15.82
2022-11-03T12:03:25.802Z,15.75
2022-11-03T12:05:52.117Z,15.79
2022-11-03T12:08:18.864Z,15.78
2022-11-03T12:10:54.559Z,15.75
2022-11-03T12:13:35.933Z,15.64
2022-11-03T12:16:02.210Z,15.73
2022-11-03T12:18:36.551Z,15.60
2022-11-03T12:21:14.554Z,15.34
2022-11-03T12:23:44.365Z,15.44
2022-11-03T12:26:36.930Z,15.48
2022-11-03T12:29:05.188Z,15.50
2022-11-03T12:31:34.374Z,15.38
2022-11-03T12:34:03.229Z,15.57
2022-11-03T12:36:29.499Z,15.46
2022-11-03T12:38:55.796Z,15.32
2022-11-03T12:41:22.124Z,15.39
2022-11-03T12:43:48.769Z,15.44
2022-11-03T12:46:15.896Z,15.35
2022-11-03T12:48:43.939Z,15.62
2022-11-03T12:51:23.408Z,15.43
2022-11-03T12:53:49.932Z,15.68
2022-11-03T12:56:16.299Z,15.86
2022-11-03T12:58:42.575Z,15.93
2022-11-03T13:01:08.946Z,16.02
2022-11-03T13:03:35.371Z,16.08
2022-11-03T13:06:04.258Z,16.03
2022-11-03T13:08:33.496Z,16.15
2022-11-03T13:10:59.771Z,16.20
2022-11-03T13:13:26.847Z,16.21
2022-11-03T13:15:53.220Z,16.15
2022-11-03T13:18:20.275Z,16.25
2022-11-03T13:20:46.598Z,16.27
2022-11-03T13:23:13.700Z,16.22
2022-11-03T13:25:41.511Z,15.94
2022-11-03T13:28:07.847Z,15.82
2022-11-03T13:30:34.120Z,16.03
2022-11-03T13:33:00.397Z,16.09
2022-11-03T13:35:26.671Z,16.20
2022-11-03T13:37:52.947Z,16.23
2022-11-03T13:40:42.770Z,16.29
2022-11-03T13:43:05.906Z,15.72
2022-11-03T13:45:32.532Z,15.81
2022-11-03T13:50:51.778Z,16.13
2022-11-03T13:56:07.825Z,16.06
2022-11-03T14:01:23.155Z,16.18
2022-11-03T14:06:36.035Z,16.38
2022-11-03T14:09:02.696Z,16.51
2022-11-03T14:11:47.421Z,16.59
2022-11-03T14:14:13.709Z,16.58
2022-11-03T14:16:40.084Z,16.57
2022-11-03T14:19:06.384Z,16.46
2022-11-03T14:21:32.932Z,16.34
2022-11-03T14:23:59.234Z,16.32
2022-11-03T14:26:41.737Z,16.42
2022-11-03T14:29:08.378Z,16.37
2022-11-03T14:31:34.763Z,16.38
2022-11-03T14:34:01.640Z,16.28
2022-11-03T14:36:27.914Z,16.21
2022-11-03T14:38:54.244Z,16.00
2022-11-03T14:41:39.329Z,15.91
2022-11-03T14:44:06.135Z,15.82
2022-11-03T14:46:32.465Z,15.29
2022-11-03T14:48:58.778Z,14.92
2022-11-03T14:51:25.128Z,14.80
2022-11-03T14:53:51.499Z,14.47
2022-11-03T14:56:17.780Z,14.38
2022-11-03T14:58:44.051Z,14.41
2022-11-03T15:01:10.426Z,14.16
2022-11-03T15:03:36.814Z,14.37
2022-11-03T15:06:03.094Z,14.29
2022-11-03T15:08:30.883Z,14.41
2022-11-03T15:10:57.139Z,14.56
2022-11-03T15:13:23.427Z,14.24
2022-11-03T15:15:49.696Z,14.02
2022-11-03T15:18:16.439Z,13.87
2022-11-03T15:20:42.747Z,14.06
2022-11-03T15:25:55.683Z,14.30
2022-11-03T15:28:22.051Z,14.24
2022-11-03T15:30:49.166Z,14.37
2022-11-03T15:33:15.987Z,14.11
2022-11-03T15:35:42.344Z,14.32
2022-11-03T15:38:09.029Z,14.09
2022-11-03T15:40:35.480Z,14.20
2022-11-03T15:43:03.111Z,14.36
2022-11-03T15:45:29.600Z,14.26
2022-11-03T15:47:58.365Z,14.67
2022-11-03T15:50:25.873Z,15.06
2022-11-03T15:52:52.513Z,15.33
2022-11-03T15:55:19.068Z,15.31
2022-11-03T15:57:45.350Z,15.48
2022-11-03T16:00:11.933Z,15.58
2022-11-03T16:02:41.800Z,15.59
2022-11-03T16:05:09.004Z,15.52
2022-11-03T16:07:35.275Z,15.38
2022-11-03T16:10:01.633Z,15.39
2022-11-03T16:12:28.003Z,14.85
2022-11-03T16:14:54.294Z,14.45
2022-11-03T16:17:22.751Z,14.29
2022-11-03T16:19:49.194Z,14.25
2022-11-03T16:22:15.548Z,13.73
2022-11-03T16:24:44.055Z,13.57
2022-11-03T16:27:10.397Z,13.48
2022-11-03T16:29:36.664Z,13.23
2022-11-03T16:32:02.927Z,12.77
2022-11-03T16:34:29.203Z,12.69
2022-11-03T16:36:56.209Z,12.66
2022-11-03T16:39:22.647Z,12.75
2022-11-03T16:41:48.962Z,13.09
2022-11-03T16:44:15.257Z,13.03
2022-11-03T16:46:41.521Z,13.29
2022-11-03T16:49:07.782Z,13.29
2022-11-03T16:51:34.066Z,13.65
2022-11-03T16:54:00.441Z,13.90
2022-11-03T16:56:26.722Z,13.84
2022-11-03T16:58:52.999Z,13.83
2022-11-03T17:01:19.352Z,13.76
2022-11-03T17:03:45.703Z,13.83
2022-11-03T17:06:12.042Z,13.86
2022-11-03T17:08:52.325Z,13.84
2022-11-03T17:11:37.930Z,13.81
2022-11-03T17:14:04.800Z,13.65
2022-11-03T17:16:31.093Z,13.61
2022-11-03T17:18:58.357Z,13.64
2022-11-03T17:21:27.627Z,13.78
2022-11-03T17:23:53.879Z,13.75
2022-11-03T17:26:21.214Z,13.71
2022-11-03T17:28:47.554Z,13.61
2022-11-03T17:31:13.838Z,13.69
2022-11-03T17:33:40.140Z,13.73
2022-11-03T17:36:06.526Z,14.00
2022-11-03T17:38:32.802Z,14.08
2022-11-03T17:40:59.167Z,13.92
2022-11-03T17:43:27.025Z,14.03
2022-11-03T17:45:53.623Z,14.06
2022-11-03T17:48:20.189Z,14.10
2022-11-03T17:50:47.526Z,13.78
2022-11-03T17:53:21.225Z,13.95
2022-11-03T17:56:02.908Z,13.87
2022-11-03T17:58:34.101Z,13.61
2022-11-03T18:01:00.536Z,13.36
2022-11-03T18:03:27.375Z,13.33
2022-11-03T18:05:53.961Z,13.14
2022-11-03T18:08:21.044Z,13.02
2022-11-03T18:10:48.103Z,12.95
2022-11-03T18:13:21.246Z,12.97
2022-11-03T18:15:49.204Z,13.11
2022-11-03T18:18:21.841Z,12.54
2022-11-03T18:20:53.209Z,12.40
2022-11-03T18:23:23.970Z,12.68
2022-11-03T18:25:50.405Z,13.14
2022-11-03T18:28:16.733Z,13.29
2022-11-03T18:30:43.720Z,13.46
2022-11-03T18:33:23.520Z,13.54
2022-11-03T18:35:49.899Z,13.62
2022-11-03T18:38:16.177Z,13.56
2022-11-03T18:40:42.929Z,13.40
2022-11-03T18:43:12.788Z,12.97
2022-11-03T18:45:39.110Z,12.86
2022-11-03T18:48:05.541Z,13.37
2022-11-03T18:50:31.872Z,13.47
2022-11-03T18:52:58.154Z,13.34
2022-11-03T18:55:24.442Z,13.38
2022-11-03T18:57:51.278Z,13.59
2022-11-03T19:00:18.900Z,13.53
2022-11-03T19:02:45.270Z,13.74
2022-11-03T19:05:14.830Z,13.64
2022-11-03T19:07:41.413Z,13.30
2022-11-03T19:10:08.233Z,13.44
2022-11-03T19:12:38.842Z,13.53
2022-11-03T19:15:06.022Z,13.60
2022-11-03T19:17:32.821Z,13.61
2022-11-03T19:19:59.091Z,13.45
2022-11-03T19:22:26.198Z,13.45
2022-11-03T19:24:52.473Z,13.49
2022-11-03T19:27:25.736Z,13.42
2022-11-03T19:29:52.068Z,13.45
2022-11-03T19:32:25.040Z,13.41
2022-11-03T19:34:53.765Z,13.19
2022-11-03T19:37:20.043Z,13.05
2022-11-03T19:39:47.254Z,12.96
2022-11-03T19:42:29.442Z,13.26
2022-11-03T19:44:56.308Z,13.45
2022-11-03T19:47:23.708Z,13.36
2022-11-03T19:49:51.334Z,13.31
2022-11-03T19:52:17.613Z,13.36
2022-11-03T19:54:45.664Z,13.30
2022-11-03T19:57:12.127Z,13.32
2022-11-03T19:59:38.474Z,13.26
2022-11-03T20:02:04.800Z,13.20
2022-11-03T20:04:31.185Z,13.59
2022-11-03T20:06:57.459Z,13.68
2022-11-03T20:09:24.753Z,13.58
2022-11-03T20:11:51.482Z,13.63
2022-11-03T20:14:19.598Z,13.44
2022-11-03T20:16:45.942Z,13.45
2022-11-03T20:19:12.309Z,13.46
2022-11-03T20:21:39.004Z,13.63
2022-11-03T20:24:05.378Z,13.46
2022-11-03T20:26:31.640Z,13.53
2022-11-03T20:28:58.031Z,13.51
2022-11-03T20:31:24.298Z,13.43
2022-11-03T20:33:50.810Z,13.47
2022-11-03T20:36:18.010Z,13.26
2022-11-03T20:38:46.102Z,13.16
2022-11-03T20:41:15.440Z,12.92
2022-11-03T20:43:42.572Z,13.03
2022-11-03T20:46:14.991Z,12.80
2022-11-03T20:48:41.258Z,12.38
2022-11-03T20:51:07.538Z,12.13
2022-11-03T20:53:34.356Z,12.39
2022-11-03T20:56:00.634Z,12.55
2022-11-03T20:58:26.992Z,12.48
2022-11-03T21:00:53.293Z,12.87
2022-11-03T21:03:53.549Z,12.87
2022-11-03T21:06:14.729Z,12.83
2022-11-03T21:08:41.031Z,12.79
2022-11-03T21:11:23.139Z,12.76
2022-11-03T21:13:53.227Z,12.87
2022-11-03T21:16:38.059Z,12.81
2022-11-03T21:19:41.536Z,12.83
2022-11-03T21:22:30.933Z,12.82
2022-11-03T21:25:00.933Z,12.90
2022-11-03T21:27:27.228Z,12.84
2022-11-03T21:29:59.344Z,12.67
2022-11-03T21:32:26.205Z,12.58
2022-11-03T21:34:52.507Z,12.32
2022-11-03T21:37:18.797Z,12.35
2022-11-03T21:39:45.165Z,12.19
2022-11-03T21:42:30.808Z,11.91
2022-11-03T21:44:57.254Z,11.86
2022-11-03T21:47:23.514Z,11.69
2022-11-03T21:49:49.919Z,11.89
2022-11-03T21:52:17.252Z,11.60
2022-11-03T21:54:43.712Z,11.84
2022-11-03T21:57:10.732Z,11.85
2022-11-03T21:59:37.022Z,12.05
2022-11-03T22:02:03.614Z,12.20
2022-11-03T22:04:30.073Z,12.39
2022-11-03T22:06:56.749Z,12.25
2022-11-03T22:09:23.577Z,12.15
2022-11-03T22:11:50.039Z,12.38
2022-11-03T22:14:16.358Z,12.34
2022-11-03T22:16:44.186Z,12.22
2022-11-03T22:19:32.647Z,12.39
2022-11-03T22:22:17.868Z,12.45
2022-11-03T22:25:02.822Z,12.11
2022-11-03T22:27:29.604Z,11.88
2022-11-03T22:30:14.527Z,12.05
2022-11-03T22:32:40.809Z,12.35
2022-11-03T22:35:26.161Z,11.21
2022-11-03T22:38:11.821Z,11.54
2022-11-03T22:40:57.001Z,12.03
2022-11-03T22:43:42.004Z,12.12
2022-11-03T22:46:08.660Z,12.27
2022-11-03T22:48:34.992Z,12.31
2022-11-03T22:51:02.237Z,12.25
2022-11-03T22:53:47.809Z,12.38
2022-11-03T22:56:14.203Z,12.51
2022-11-03T22:58:40.549Z,12.58
2022-11-03T23:01:08.164Z,12.54
2022-11-03T23:03:34.998Z,12.42
2022-11-03T23:06:02.076Z,12.30
2022-11-03T23:08:29.339Z,12.34
2022-11-03T23:10:55.619Z,12.51
2022-11-03T23:13:21.994Z,12.53
2022-11-03T23:15:48.322Z,12.49
2022-11-03T23:18:33.384Z,12.44
2022-11-03T23:21:08.474Z,12.58
2022-11-03T23:23:53.519Z,12.34
2022-11-03T23:26:19.919Z,12.13
2022-11-03T23:28:46.227Z,12.18
2022-11-03T23:31:12.757Z,12.05
2022-11-03T23:33:39.184Z,12.23
2022-11-03T23:36:06.117Z,12.16
2022-11-03T23:38:33.213Z,12.07
2022-11-03T23:41:18.374Z,12.30
2022-11-03T23:43:44.776Z,12.24
2022-11-03T23:46:33.368Z,11.75
2022-11-03T23:48:59.689Z,11.79
2022-11-03T23:51:26.810Z,11.71
2022-11-03T23:53:53.372Z,11.94
2022-11-03T23:56:39.087Z,12.03
2022-11-03T23:59:05.579Z,11.94
